sensor_id;sensor_type;location;lat;lon;timestamp;temperature;humidity
814;DHT22;389;48.710;9.392;2023-05-29T00:00:14;13.50;93.00
814;DHT22;389;48.710;9.392;2023-05-29T00:02:41;13.40;93.20
814;DHT22;389;48.710;9.392;2023-05-29T00:05:10;13.40;93.40
814;DHT22;389;48.710;9.392;2023-05-29T00:07:37;13.30;93.60
814;DHT22;389;48.710;9.392;2023-05-29T00:10:03;13.30;93.80
814;DHT22;389;48.710;9.392;2023-05-29T00:12:29;13.30;93.80
814;DHT22;389;48.710;9.392;2023-05-29T00:14:55;13.30;93.90
814;DHT22;389;48.710;9.392;2023-05-29T00:17:20;13.20;94.00
814;DHT22;389;48.710;9.392;2023-05-29T00:19:46;13.20;94.10
814;DHT22;389;48.710;9.392;2023-05-29T00:22:12;13.10;94.20
814;DHT22;389;48.710;9.392;2023-05-29T00:24:38;13.00;94.30
814;DHT22;389;48.710;9.392;2023-05-29T00:27:04;13.00;94.40
814;DHT22;389;48.710;9.392;2023-05-29T00:29:29;12.90;94.50
814;DHT22;389;48.710;9.392;2023-05-29T00:31:56;12.90;94.70
814;DHT22;389;48.710;9.392;2023-05-29T00:34:22;12.90;94.80
814;DHT22;389;48.710;9.392;2023-05-29T00:36:49;12.80;94.90
814;DHT22;389;48.710;9.392;2023-05-29T00:39:15;12.80;95.00
814;DHT22;389;48.710;9.392;2023-05-29T00:41:40;12.80;95.20
814;DHT22;389;48.710;9.392;2023-05-29T00:44:06;12.80;95.30
814;DHT22;389;48.710;9.392;2023-05-29T00:46:33;12.70;95.30
814;DHT22;389;48.710;9.392;2023-05-29T00:48:59;12.70;95.40
814;DHT22;389;48.710;9.392;2023-05-29T00:51:27;12.60;95.50
814;DHT22;389;48.710;9.392;2023-05-29T00:53:54;12.60;95.60
814;DHT22;389;48.710;9.392;2023-05-29T00:56:20;12.50;95.60
814;DHT22;389;48.710;9.392;2023-05-29T00:58:49;12.60;95.80
814;DHT22;389;48.710;9.392;2023-05-29T01:01:19;12.40;95.80
814;DHT22;389;48.710;9.392;2023-05-29T01:03:46;12.40;95.90
814;DHT22;389;48.710;9.392;2023-05-29T01:06:14;12.40;96.10
814;DHT22;389;48.710;9.392;2023-05-29T01:08:39;12.30;96.20
814;DHT22;389;48.710;9.392;2023-05-29T01:11:20;12.30;96.30
814;DHT22;389;48.710;9.392;2023-05-29T01:13:49;12.30;96.40
814;DHT22;389;48.710;9.392;2023-05-29T01:19:00;12.10;96.50
814;DHT22;389;48.710;9.392;2023-05-29T01:21:27;12.20;96.70
814;DHT22;389;48.710;9.392;2023-05-29T01:24:17;12.20;96.80
814;DHT22;389;48.710;9.392;2023-05-29T01:27:22;12.10;96.90
814;DHT22;389;48.710;9.392;2023-05-29T01:29:43;12.10;97.20
814;DHT22;389;48.710;9.392;2023-05-29T01:32:10;12.00;97.30
814;DHT22;389;48.710;9.392;2023-05-29T01:34:36;12.00;97.40
814;DHT22;389;48.710;9.392;2023-05-29T01:37:02;12.00;97.40
814;DHT22;389;48.710;9.392;2023-05-29T01:39:29;12.00;97.40
814;DHT22;389;48.710;9.392;2023-05-29T01:41:56;11.90;97.40
814;DHT22;389;48.710;9.392;2023-05-29T01:44:22;11.90;97.40
814;DHT22;389;48.710;9.392;2023-05-29T01:46:49;11.80;97.40
814;DHT22;389;48.710;9.392;2023-05-29T01:49:15;11.80;97.50
814;DHT22;389;48.710;9.392;2023-05-29T01:51:42;11.70;97.50
814;DHT22;389;48.710;9.392;2023-05-29T01:54:08;11.70;97.60
814;DHT22;389;48.710;9.392;2023-05-29T01:56:34;11.80;97.80
814;DHT22;389;48.710;9.392;2023-05-29T01:59:02;11.60;98.20
814;DHT22;389;48.710;9.392;2023-05-29T02:01:28;11.60;98.00
814;DHT22;389;48.710;9.392;2023-05-29T02:03:53;11.60;98.20
814;DHT22;389;48.710;9.392;2023-05-29T02:06:19;11.50;98.20
814;DHT22;389;48.710;9.392;2023-05-29T02:08:45;11.60;98.30
814;DHT22;389;48.710;9.392;2023-05-29T02:11:11;11.50;98.30
814;DHT22;389;48.710;9.392;2023-05-29T02:13:37;11.50;98.40
814;DHT22;389;48.710;9.392;2023-05-29T02:16:03;11.40;98.40
814;DHT22;389;48.710;9.392;2023-05-29T02:18:29;11.40;98.40
814;DHT22;389;48.710;9.392;2023-05-29T02:20:54;11.40;98.40
814;DHT22;389;48.710;9.392;2023-05-29T02:23:20;11.40;98.50
814;DHT22;389;48.710;9.392;2023-05-29T02:25:46;11.30;98.60
814;DHT22;389;48.710;9.392;2023-05-29T02:28:12;11.30;98.70
814;DHT22;389;48.710;9.392;2023-05-29T02:30:37;11.20;98.70
814;DHT22;389;48.710;9.392;2023-05-29T02:33:03;11.20;98.70
814;DHT22;389;48.710;9.392;2023-05-29T02:35:29;11.20;98.70
814;DHT22;389;48.710;9.392;2023-05-29T02:37:55;11.20;98.80
814;DHT22;389;48.710;9.392;2023-05-29T02:40:20;11.10;98.80
814;DHT22;389;48.710;9.392;2023-05-29T02:42:47;11.10;98.90
814;DHT22;389;48.710;9.392;2023-05-29T02:45:12;11.00;98.90
814;DHT22;389;48.710;9.392;2023-05-29T02:47:38;11.00;99.10
814;DHT22;389;48.710;9.392;2023-05-29T02:50:04;11.00;99.10
814;DHT22;389;48.710;9.392;2023-05-29T02:52:32;10.90;99.10
814;DHT22;389;48.710;9.392;2023-05-29T02:54:57;10.90;99.20
814;DHT22;389;48.710;9.392;2023-05-29T02:57:24;10.90;99.30
814;DHT22;389;48.710;9.392;2023-05-29T02:59:50;10.90;99.30
814;DHT22;389;48.710;9.392;2023-05-29T03:02:17;10.80;99.30
814;DHT22;389;48.710;9.392;2023-05-29T03:04:43;10.80;99.40
814;DHT22;389;48.710;9.392;2023-05-29T03:07:09;10.90;99.50
814;DHT22;389;48.710;9.392;2023-05-29T03:09:35;10.70;99.40
814;DHT22;389;48.710;9.392;2023-05-29T03:12:01;10.70;99.50
814;DHT22;389;48.710;9.392;2023-05-29T03:14:27;10.70;99.60
814;DHT22;389;48.710;9.392;2023-05-29T03:16:53;10.70;99.60
814;DHT22;389;48.710;9.392;2023-05-29T03:19:19;10.80;99.70
814;DHT22;389;48.710;9.392;2023-05-29T03:21:45;10.70;99.60
814;DHT22;389;48.710;9.392;2023-05-29T03:24:11;10.70;99.60
814;DHT22;389;48.710;9.392;2023-05-29T03:26:39;10.60;99.50
814;DHT22;389;48.710;9.392;2023-05-29T03:29:04;10.60;99.60
814;DHT22;389;48.710;9.392;2023-05-29T03:31:31;10.70;99.70
814;DHT22;389;48.710;9.392;2023-05-29T03:33:56;10.60;99.60
814;DHT22;389;48.710;9.392;2023-05-29T03:36:22;10.60;99.60
814;DHT22;389;48.710;9.392;2023-05-29T03:38:47;10.70;99.80
814;DHT22;389;48.710;9.392;2023-05-29T03:41:13;10.60;99.80
814;DHT22;389;48.710;9.392;2023-05-29T03:43:38;10.70;99.80
814;DHT22;389;48.710;9.392;2023-05-29T03:46:04;10.60;99.80
814;DHT22;389;48.710;9.392;2023-05-29T03:48:30;10.60;99.90
814;DHT22;389;48.710;9.392;2023-05-29T03:50:55;10.60;99.90
814;DHT22;389;48.710;9.392;2023-05-29T03:53:21;10.60;99.90
814;DHT22;389;48.710;9.392;2023-05-29T03:55:46;10.60;99.90
814;DHT22;389;48.710;9.392;2023-05-29T03:58:12;10.70;99.90
814;DHT22;389;48.710;9.392;2023-05-29T04:00:38;10.70;99.90
814;DHT22;389;48.710;9.392;2023-05-29T04:03:04;10.70;99.90
814;DHT22;389;48.710;9.392;2023-05-29T04:05:30;10.80;99.90
814;DHT22;389;48.710;9.392;2023-05-29T04:07:56;10.80;99.90
814;DHT22;389;48.710;9.392;2023-05-29T04:10:22;10.90;99.90
814;DHT22;389;48.710;9.392;2023-05-29T04:12:48;10.90;99.90
814;DHT22;389;48.710;9.392;2023-05-29T04:15:14;11.00;99.90
814;DHT22;389;48.710;9.392;2023-05-29T04:17:39;11.00;99.90
814;DHT22;389;48.710;9.392;2023-05-29T04:20:05;11.10;99.90
814;DHT22;389;48.710;9.392;2023-05-29T04:22:37;11.20;99.90
814;DHT22;389;48.710;9.392;2023-05-29T04:25:03;11.20;99.90
814;DHT22;389;48.710;9.392;2023-05-29T04:27:29;11.30;99.90
814;DHT22;389;48.710;9.392;2023-05-29T04:29:57;11.40;99.90
814;DHT22;389;48.710;9.392;2023-05-29T04:32:23;11.40;99.90
814;DHT22;389;48.710;9.392;2023-05-29T04:34:49;11.60;99.90
814;DHT22;389;48.710;9.392;2023-05-29T04:37:16;11.60;99.90
814;DHT22;389;48.710;9.392;2023-05-29T04:39:42;11.70;99.90
814;DHT22;389;48.710;9.392;2023-05-29T04:42:08;11.90;99.90
814;DHT22;389;48.710;9.392;2023-05-29T04:44:33;12.00;99.90
814;DHT22;389;48.710;9.392;2023-05-29T04:46:59;12.40;99.90
814;DHT22;389;48.710;9.392;2023-05-29T04:49:28;12.80;99.90
814;DHT22;389;48.710;9.392;2023-05-29T04:51:54;13.40;99.90
814;DHT22;389;48.710;9.392;2023-05-29T04:54:21;14.00;99.90
814;DHT22;389;48.710;9.392;2023-05-29T04:56:46;14.60;99.10
814;DHT22;389;48.710;9.392;2023-05-29T04:59:12;15.30;98.10
814;DHT22;389;48.710;9.392;2023-05-29T05:01:38;15.90;96.80
814;DHT22;389;48.710;9.392;2023-05-29T05:04:04;16.40;94.70
814;DHT22;389;48.710;9.392;2023-05-29T05:06:29;16.90;93.50
814;DHT22;389;48.710;9.392;2023-05-29T05:08:55;17.40;92.60
814;DHT22;389;48.710;9.392;2023-05-29T05:11:22;17.90;91.90
814;DHT22;389;48.710;9.392;2023-05-29T05:13:48;18.20;90.30
814;DHT22;389;48.710;9.392;2023-05-29T05:16:14;18.60;89.30
814;DHT22;389;48.710;9.392;2023-05-29T05:18:39;19.00;88.10
814;DHT22;389;48.710;9.392;2023-05-29T05:21:05;19.30;86.70
814;DHT22;389;48.710;9.392;2023-05-29T05:23:31;19.60;85.60
814;DHT22;389;48.710;9.392;2023-05-29T05:25:57;19.90;84.50
814;DHT22;389;48.710;9.392;2023-05-29T05:28:22;20.20;83.30
814;DHT22;389;48.710;9.392;2023-05-29T05:30:48;20.40;81.70
814;DHT22;389;48.710;9.392;2023-05-29T05:33:13;20.80;80.90
814;DHT22;389;48.710;9.392;2023-05-29T05:35:39;21.00;79.60
814;DHT22;389;48.710;9.392;2023-05-29T05:38:05;21.20;78.60
814;DHT22;389;48.710;9.392;2023-05-29T05:40:31;21.50;77.80
814;DHT22;389;48.710;9.392;2023-05-29T05:42:57;21.60;76.60
814;DHT22;389;48.710;9.392;2023-05-29T05:45:22;21.70;76.30
814;DHT22;389;48.710;9.392;2023-05-29T05:47:48;21.90;75.70
814;DHT22;389;48.710;9.392;2023-05-29T05:50:15;22.20;75.40
814;DHT22;389;48.710;9.392;2023-05-29T05:52:41;22.30;74.30
814;DHT22;389;48.710;9.392;2023-05-29T05:55:06;22.30;73.00
814;DHT22;389;48.710;9.392;2023-05-29T05:57:33;22.50;73.20
814;DHT22;389;48.710;9.392;2023-05-29T05:59:59;22.60;72.80
814;DHT22;389;48.710;9.392;2023-05-29T06:02:25;22.80;72.10
814;DHT22;389;48.710;9.392;2023-05-29T06:04:51;22.90;71.60
814;DHT22;389;48.710;9.392;2023-05-29T06:07:17;23.00;71.90
814;DHT22;389;48.710;9.392;2023-05-29T06:09:42;23.10;71.60
814;DHT22;389;48.710;9.392;2023-05-29T06:12:08;23.30;71.00
814;DHT22;389;48.710;9.392;2023-05-29T06:14:35;23.20;70.50
814;DHT22;389;48.710;9.392;2023-05-29T06:17:01;23.10;70.60
814;DHT22;389;48.710;9.392;2023-05-29T06:19:26;23.20;70.60
814;DHT22;389;48.710;9.392;2023-05-29T06:21:52;23.30;70.60
814;DHT22;389;48.710;9.392;2023-05-29T06:24:18;23.30;70.40
814;DHT22;389;48.710;9.392;2023-05-29T06:26:43;23.50;70.00
814;DHT22;389;48.710;9.392;2023-05-29T06:29:09;23.60;69.80
814;DHT22;389;48.710;9.392;2023-05-29T06:31:34;23.80;69.40
814;DHT22;389;48.710;9.392;2023-05-29T06:34:00;23.90;68.80
814;DHT22;389;48.710;9.392;2023-05-29T06:36:34;24.10;68.40
814;DHT22;389;48.710;9.392;2023-05-29T06:39:00;24.20;67.40
814;DHT22;389;48.710;9.392;2023-05-29T06:41:28;24.40;67.00
814;DHT22;389;48.710;9.392;2023-05-29T06:44:02;24.50;66.70
814;DHT22;389;48.710;9.392;2023-05-29T06:46:28;24.60;66.30
814;DHT22;389;48.710;9.392;2023-05-29T06:48:53;24.70;65.50
814;DHT22;389;48.710;9.392;2023-05-29T06:51:19;24.90;64.80
814;DHT22;389;48.710;9.392;2023-05-29T06:53:44;25.10;64.30
814;DHT22;389;48.710;9.392;2023-05-29T06:56:10;25.30;64.00
814;DHT22;389;48.710;9.392;2023-05-29T06:58:35;25.40;64.50
814;DHT22;389;48.710;9.392;2023-05-29T07:01:01;25.60;63.70
814;DHT22;389;48.710;9.392;2023-05-29T07:03:27;25.70;63.20
814;DHT22;389;48.710;9.392;2023-05-29T07:05:53;25.50;62.90
814;DHT22;389;48.710;9.392;2023-05-29T07:08:19;25.40;62.50
814;DHT22;389;48.710;9.392;2023-05-29T07:10:44;25.20;62.30
814;DHT22;389;48.710;9.392;2023-05-29T07:13:15;24.90;63.20
814;DHT22;389;48.710;9.392;2023-05-29T07:15:40;24.50;63.90
814;DHT22;389;48.710;9.392;2023-05-29T07:18:06;24.20;64.90
814;DHT22;389;48.710;9.392;2023-05-29T07:20:32;23.90;65.90
814;DHT22;389;48.710;9.392;2023-05-29T07:22:57;23.70;65.60
814;DHT22;389;48.710;9.392;2023-05-29T07:25:35;23.50;66.30
814;DHT22;389;48.710;9.392;2023-05-29T07:28:01;23.40;66.60
814;DHT22;389;48.710;9.392;2023-05-29T07:30:26;23.30;67.50
814;DHT22;389;48.710;9.392;2023-05-29T07:32:52;23.30;67.50
814;DHT22;389;48.710;9.392;2023-05-29T07:35:17;23.20;67.70
814;DHT22;389;48.710;9.392;2023-05-29T07:37:43;23.10;68.10
814;DHT22;389;48.710;9.392;2023-05-29T07:40:09;23.10;68.00
814;DHT22;389;48.710;9.392;2023-05-29T07:42:35;23.10;68.70
814;DHT22;389;48.710;9.392;2023-05-29T07:45:01;23.20;68.40
814;DHT22;389;48.710;9.392;2023-05-29T07:47:27;23.30;68.20
814;DHT22;389;48.710;9.392;2023-05-29T07:49:52;23.30;67.80
814;DHT22;389;48.710;9.392;2023-05-29T07:52:18;23.40;68.60
814;DHT22;389;48.710;9.392;2023-05-29T07:54:44;23.50;68.40
814;DHT22;389;48.710;9.392;2023-05-29T07:57:10;23.50;68.30
814;DHT22;389;48.710;9.392;2023-05-29T07:59:36;23.60;68.50
814;DHT22;389;48.710;9.392;2023-05-29T08:02:02;23.60;67.90
814;DHT22;389;48.710;9.392;2023-05-29T08:04:29;23.60;67.80
814;DHT22;389;48.710;9.392;2023-05-29T08:06:55;23.60;68.10
814;DHT22;389;48.710;9.392;2023-05-29T08:09:21;23.60;67.10
814;DHT22;389;48.710;9.392;2023-05-29T08:11:46;23.50;67.40
814;DHT22;389;48.710;9.392;2023-05-29T08:14:14;23.50;66.80
814;DHT22;389;48.710;9.392;2023-05-29T08:16:39;23.50;67.20
814;DHT22;389;48.710;9.392;2023-05-29T08:19:05;23.50;67.20
814;DHT22;389;48.710;9.392;2023-05-29T08:21:31;23.60;67.40
814;DHT22;389;48.710;9.392;2023-05-29T08:23:57;23.60;67.20
814;DHT22;389;48.710;9.392;2023-05-29T08:26:23;23.70;67.50
814;DHT22;389;48.710;9.392;2023-05-29T08:28:49;23.70;66.40
814;DHT22;389;48.710;9.392;2023-05-29T08:31:15;23.70;66.30
814;DHT22;389;48.710;9.392;2023-05-29T08:33:41;23.80;66.20
814;DHT22;389;48.710;9.392;2023-05-29T08:36:07;23.90;65.60
814;DHT22;389;48.710;9.392;2023-05-29T08:38:32;23.90;65.40
814;DHT22;389;48.710;9.392;2023-05-29T08:41:07;23.90;65.70
814;DHT22;389;48.710;9.392;2023-05-29T08:43:32;23.90;65.00
814;DHT22;389;48.710;9.392;2023-05-29T08:46:02;24.00;65.40
814;DHT22;389;48.710;9.392;2023-05-29T08:48:30;24.00;64.80
814;DHT22;389;48.710;9.392;2023-05-29T08:50:57;24.00;65.10
814;DHT22;389;48.710;9.392;2023-05-29T08:53:24;24.00;64.90
814;DHT22;389;48.710;9.392;2023-05-29T08:55:51;24.00;65.50
814;DHT22;389;48.710;9.392;2023-05-29T08:58:21;24.20;65.70
814;DHT22;389;48.710;9.392;2023-05-29T09:00:48;24.20;64.40
814;DHT22;389;48.710;9.392;2023-05-29T09:03:15;24.30;64.10
814;DHT22;389;48.710;9.392;2023-05-29T09:05:41;24.40;64.20
814;DHT22;389;48.710;9.392;2023-05-29T09:08:08;24.50;63.80
814;DHT22;389;48.710;9.392;2023-05-29T09:10:35;24.60;63.00
814;DHT22;389;48.710;9.392;2023-05-29T09:13:01;24.70;63.10
814;DHT22;389;48.710;9.392;2023-05-29T09:15:26;24.80;60.30
814;DHT22;389;48.710;9.392;2023-05-29T09:17:56;24.80;60.00
814;DHT22;389;48.710;9.392;2023-05-29T09:20:23;24.90;59.60
814;DHT22;389;48.710;9.392;2023-05-29T09:22:58;24.90;57.70
814;DHT22;389;48.710;9.392;2023-05-29T09:25:25;25.00;58.10
814;DHT22;389;48.710;9.392;2023-05-29T09:27:58;25.10;57.70
814;DHT22;389;48.710;9.392;2023-05-29T09:30:38;25.20;58.40
814;DHT22;389;48.710;9.392;2023-05-29T09:33:06;25.20;57.20
814;DHT22;389;48.710;9.392;2023-05-29T09:35:37;25.30;57.50
814;DHT22;389;48.710;9.392;2023-05-29T09:38:04;25.30;57.10
814;DHT22;389;48.710;9.392;2023-05-29T09:40:31;25.40;56.10
814;DHT22;389;48.710;9.392;2023-05-29T09:43:05;25.50;56.30
814;DHT22;389;48.710;9.392;2023-05-29T09:45:33;25.50;56.00
814;DHT22;389;48.710;9.392;2023-05-29T09:47:58;25.50;55.70
814;DHT22;389;48.710;9.392;2023-05-29T09:50:28;25.60;55.10
814;DHT22;389;48.710;9.392;2023-05-29T09:52:56;25.60;55.40
814;DHT22;389;48.710;9.392;2023-05-29T09:55:23;25.60;54.50
814;DHT22;389;48.710;9.392;2023-05-29T09:57:53;25.70;54.70
814;DHT22;389;48.710;9.392;2023-05-29T10:00:20;25.70;53.90
814;DHT22;389;48.710;9.392;2023-05-29T10:02:48;25.70;53.70
814;DHT22;389;48.710;9.392;2023-05-29T10:05:15;25.70;53.90
814;DHT22;389;48.710;9.392;2023-05-29T10:07:45;25.70;53.30
814;DHT22;389;48.710;9.392;2023-05-29T10:10:13;25.80;53.40
814;DHT22;389;48.710;9.392;2023-05-29T10:12:44;25.80;53.40
814;DHT22;389;48.710;9.392;2023-05-29T10:15:14;25.80;53.90
814;DHT22;389;48.710;9.392;2023-05-29T10:18:03;25.80;53.90
814;DHT22;389;48.710;9.392;2023-05-29T10:20:35;25.80;53.20
814;DHT22;389;48.710;9.392;2023-05-29T10:23:01;25.70;53.00
814;DHT22;389;48.710;9.392;2023-05-29T10:25:31;25.70;52.50
814;DHT22;389;48.710;9.392;2023-05-29T10:27:58;25.70;53.40
814;DHT22;389;48.710;9.392;2023-05-29T10:30:29;25.70;53.60
814;DHT22;389;48.710;9.392;2023-05-29T10:36:13;25.70;53.30
814;DHT22;389;48.710;9.392;2023-05-29T10:38:44;25.80;53.70
814;DHT22;389;48.710;9.392;2023-05-29T10:43:59;25.90;54.10
814;DHT22;389;48.710;9.392;2023-05-29T10:49:19;26.10;53.30
814;DHT22;389;48.710;9.392;2023-05-29T10:51:46;26.20;53.60
814;DHT22;389;48.710;9.392;2023-05-29T10:54:12;26.20;53.00
814;DHT22;389;48.710;9.392;2023-05-29T10:56:39;26.10;53.30
814;DHT22;389;48.710;9.392;2023-05-29T10:59:07;26.10;52.90
814;DHT22;389;48.710;9.392;2023-05-29T11:01:33;26.10;52.90
814;DHT22;389;48.710;9.392;2023-05-29T11:06:43;26.20;53.10
814;DHT22;389;48.710;9.392;2023-05-29T11:09:35;26.20;53.00
814;DHT22;389;48.710;9.392;2023-05-29T11:12:23;26.20;53.10
814;DHT22;389;48.710;9.392;2023-05-29T11:15:05;26.30;53.00
814;DHT22;389;48.710;9.392;2023-05-29T11:17:42;26.30;52.60
814;DHT22;389;48.710;9.392;2023-05-29T11:20:27;26.40;52.50
814;DHT22;389;48.710;9.392;2023-05-29T11:25:25;26.50;51.30
814;DHT22;389;48.710;9.392;2023-05-29T11:27:51;26.50;51.20
814;DHT22;389;48.710;9.392;2023-05-29T11:30:21;26.60;50.50
814;DHT22;389;48.710;9.392;2023-05-29T11:32:47;26.50;49.40
814;DHT22;389;48.710;9.392;2023-05-29T11:35:14;26.60;50.60
814;DHT22;389;48.710;9.392;2023-05-29T11:37:40;26.60;49.70
814;DHT22;389;48.710;9.392;2023-05-29T11:40:09;26.70;50.60
814;DHT22;389;48.710;9.392;2023-05-29T11:42:37;26.70;50.50
814;DHT22;389;48.710;9.392;2023-05-29T11:45:20;26.80;49.50
814;DHT22;389;48.710;9.392;2023-05-29T11:48:00;26.80;49.20
814;DHT22;389;48.710;9.392;2023-05-29T11:50:36;26.90;49.00
814;DHT22;389;48.710;9.392;2023-05-29T11:53:01;26.90;48.70
814;DHT22;389;48.710;9.392;2023-05-29T11:55:28;26.90;48.20
814;DHT22;389;48.710;9.392;2023-05-29T11:58:00;27.00;47.60
814;DHT22;389;48.710;9.392;2023-05-29T12:00:47;26.90;47.00
814;DHT22;389;48.710;9.392;2023-05-29T12:03:15;26.90;47.40
814;DHT22;389;48.710;9.392;2023-05-29T12:05:47;27.00;45.90
814;DHT22;389;48.710;9.392;2023-05-29T12:08:13;27.00;46.10
814;DHT22;389;48.710;9.392;2023-05-29T12:10:47;27.00;46.10
814;DHT22;389;48.710;9.392;2023-05-29T12:13:12;27.10;46.30
814;DHT22;389;48.710;9.392;2023-05-29T12:15:40;27.00;45.60
814;DHT22;389;48.710;9.392;2023-05-29T12:18:05;27.00;46.30
814;DHT22;389;48.710;9.392;2023-05-29T12:20:31;27.00;45.80
814;DHT22;389;48.710;9.392;2023-05-29T12:23:01;27.00;46.20
814;DHT22;389;48.710;9.392;2023-05-29T12:25:27;27.10;46.40
814;DHT22;389;48.710;9.392;2023-05-29T12:27:55;27.00;46.60
814;DHT22;389;48.710;9.392;2023-05-29T12:30:22;27.00;46.20
814;DHT22;389;48.710;9.392;2023-05-29T12:32:50;27.00;46.10
814;DHT22;389;48.710;9.392;2023-05-29T12:35:24;27.00;45.90
814;DHT22;389;48.710;9.392;2023-05-29T12:37:56;27.10;45.40
814;DHT22;389;48.710;9.392;2023-05-29T12:40:23;27.10;45.30
814;DHT22;389;48.710;9.392;2023-05-29T12:43:08;27.10;45.10
814;DHT22;389;48.710;9.392;2023-05-29T12:45:37;27.10;45.30
814;DHT22;389;48.710;9.392;2023-05-29T12:48:04;27.10;45.90
814;DHT22;389;48.710;9.392;2023-05-29T12:50:41;27.20;46.20
814;DHT22;389;48.710;9.392;2023-05-29T12:53:11;27.20;46.50
814;DHT22;389;48.710;9.392;2023-05-29T12:55:39;27.30;45.30
814;DHT22;389;48.710;9.392;2023-05-29T12:58:09;27.30;45.60
814;DHT22;389;48.710;9.392;2023-05-29T13:00:43;27.40;45.90
814;DHT22;389;48.710;9.392;2023-05-29T13:03:09;27.40;44.90
814;DHT22;389;48.710;9.392;2023-05-29T13:05:36;27.40;45.20
814;DHT22;389;48.710;9.392;2023-05-29T13:08:03;27.40;45.10
814;DHT22;389;48.710;9.392;2023-05-29T13:10:31;27.30;45.10
814;DHT22;389;48.710;9.392;2023-05-29T13:12:57;27.40;45.10
814;DHT22;389;48.710;9.392;2023-05-29T13:15:25;27.50;45.00
814;DHT22;389;48.710;9.392;2023-05-29T13:17:52;27.50;43.90
814;DHT22;389;48.710;9.392;2023-05-29T13:20:18;27.50;44.50
814;DHT22;389;48.710;9.392;2023-05-29T13:22:46;27.40;44.90
814;DHT22;389;48.710;9.392;2023-05-29T13:25:14;27.50;44.40
814;DHT22;389;48.710;9.392;2023-05-29T13:27:43;27.50;44.10
814;DHT22;389;48.710;9.392;2023-05-29T13:30:10;27.50;44.10
814;DHT22;389;48.710;9.392;2023-05-29T13:32:36;27.60;44.20
814;DHT22;389;48.710;9.392;2023-05-29T13:35:02;27.70;43.40
814;DHT22;389;48.710;9.392;2023-05-29T13:37:28;27.60;43.40
814;DHT22;389;48.710;9.392;2023-05-29T13:39:54;27.60;44.00
814;DHT22;389;48.710;9.392;2023-05-29T13:42:20;27.70;43.80
814;DHT22;389;48.710;9.392;2023-05-29T13:44:47;27.60;43.50
814;DHT22;389;48.710;9.392;2023-05-29T13:47:13;27.60;43.40
814;DHT22;389;48.710;9.392;2023-05-29T13:49:39;27.70;43.90
814;DHT22;389;48.710;9.392;2023-05-29T13:52:05;27.60;43.10
814;DHT22;389;48.710;9.392;2023-05-29T13:54:31;27.60;43.90
814;DHT22;389;48.710;9.392;2023-05-29T13:57:01;27.70;43.50
814;DHT22;389;48.710;9.392;2023-05-29T13:59:27;27.70;43.20
814;DHT22;389;48.710;9.392;2023-05-29T14:01:52;27.80;43.30
814;DHT22;389;48.710;9.392;2023-05-29T14:04:18;27.80;43.50
814;DHT22;389;48.710;9.392;2023-05-29T14:06:43;27.80;42.70
814;DHT22;389;48.710;9.392;2023-05-29T14:09:09;27.80;42.60
814;DHT22;389;48.710;9.392;2023-05-29T14:11:36;27.80;43.20
814;DHT22;389;48.710;9.392;2023-05-29T14:14:03;27.90;43.70
814;DHT22;389;48.710;9.392;2023-05-29T14:16:29;27.90;43.10
814;DHT22;389;48.710;9.392;2023-05-29T14:18:55;27.90;42.60
814;DHT22;389;48.710;9.392;2023-05-29T14:21:20;27.90;42.50
814;DHT22;389;48.710;9.392;2023-05-29T14:23:46;27.90;42.70
814;DHT22;389;48.710;9.392;2023-05-29T14:26:12;27.90;42.10
814;DHT22;389;48.710;9.392;2023-05-29T14:28:37;27.90;42.80
814;DHT22;389;48.710;9.392;2023-05-29T14:31:04;28.00;42.80
814;DHT22;389;48.710;9.392;2023-05-29T14:33:30;28.00;41.70
814;DHT22;389;48.710;9.392;2023-05-29T14:35:56;28.10;41.30
814;DHT22;389;48.710;9.392;2023-05-29T14:38:23;28.10;40.80
814;DHT22;389;48.710;9.392;2023-05-29T14:40:49;28.10;40.20
814;DHT22;389;48.710;9.392;2023-05-29T14:43:15;28.20;39.80
814;DHT22;389;48.710;9.392;2023-05-29T14:45:40;28.10;39.60
814;DHT22;389;48.710;9.392;2023-05-29T14:48:06;28.20;40.00
814;DHT22;389;48.710;9.392;2023-05-29T14:50:31;28.20;40.00
814;DHT22;389;48.710;9.392;2023-05-29T14:52:57;28.20;40.60
814;DHT22;389;48.710;9.392;2023-05-29T14:55:23;28.30;40.10
814;DHT22;389;48.710;9.392;2023-05-29T14:57:48;28.30;40.40
814;DHT22;389;48.710;9.392;2023-05-29T15:00:15;28.40;39.80
814;DHT22;389;48.710;9.392;2023-05-29T15:02:41;28.40;40.10
814;DHT22;389;48.710;9.392;2023-05-29T15:05:07;28.50;39.50
814;DHT22;389;48.710;9.392;2023-05-29T15:07:33;28.50;39.70
814;DHT22;389;48.710;9.392;2023-05-29T15:10:05;28.50;40.50
814;DHT22;389;48.710;9.392;2023-05-29T15:12:32;28.50;40.30
814;DHT22;389;48.710;9.392;2023-05-29T15:14:58;28.50;40.10
814;DHT22;389;48.710;9.392;2023-05-29T15:17:23;28.50;40.10
814;DHT22;389;48.710;9.392;2023-05-29T15:19:49;28.40;40.70
814;DHT22;389;48.710;9.392;2023-05-29T15:22:14;28.50;40.50
814;DHT22;389;48.710;9.392;2023-05-29T15:24:40;28.50;40.80
814;DHT22;389;48.710;9.392;2023-05-29T15:27:06;28.50;40.20
814;DHT22;389;48.710;9.392;2023-05-29T15:29:33;28.50;40.00
814;DHT22;389;48.710;9.392;2023-05-29T15:32:02;28.60;39.80
814;DHT22;389;48.710;9.392;2023-05-29T15:34:28;28.60;40.20
814;DHT22;389;48.710;9.392;2023-05-29T15:36:54;28.60;40.10
814;DHT22;389;48.710;9.392;2023-05-29T15:39:20;28.60;39.60
814;DHT22;389;48.710;9.392;2023-05-29T15:41:46;28.50;39.40
814;DHT22;389;48.710;9.392;2023-05-29T15:44:12;28.50;39.80
814;DHT22;389;48.710;9.392;2023-05-29T15:46:38;28.60;40.20
814;DHT22;389;48.710;9.392;2023-05-29T15:49:03;28.50;39.10
814;DHT22;389;48.710;9.392;2023-05-29T15:51:29;28.60;38.70
814;DHT22;389;48.710;9.392;2023-05-29T15:53:54;28.60;38.70
814;DHT22;389;48.710;9.392;2023-05-29T15:56:20;28.60;39.40
814;DHT22;389;48.710;9.392;2023-05-29T15:58:52;28.60;39.70
814;DHT22;389;48.710;9.392;2023-05-29T16:01:18;28.60;39.90
814;DHT22;389;48.710;9.392;2023-05-29T16:03:43;28.60;39.60
814;DHT22;389;48.710;9.392;2023-05-29T16:06:09;28.60;39.90
814;DHT22;389;48.710;9.392;2023-05-29T16:08:35;28.60;39.50
814;DHT22;389;48.710;9.392;2023-05-29T16:11:00;28.60;40.00
814;DHT22;389;48.710;9.392;2023-05-29T16:13:27;28.50;40.00
814;DHT22;389;48.710;9.392;2023-05-29T16:15:52;28.50;40.10
814;DHT22;389;48.710;9.392;2023-05-29T16:18:18;28.40;41.00
814;DHT22;389;48.710;9.392;2023-05-29T16:20:43;28.40;41.20
814;DHT22;389;48.710;9.392;2023-05-29T16:23:09;28.30;41.70
814;DHT22;389;48.710;9.392;2023-05-29T16:25:35;28.20;41.40
814;DHT22;389;48.710;9.392;2023-05-29T16:28:01;28.20;41.10
814;DHT22;389;48.710;9.392;2023-05-29T16:30:26;28.20;40.80
814;DHT22;389;48.710;9.392;2023-05-29T16:32:52;28.20;41.00
814;DHT22;389;48.710;9.392;2023-05-29T16:35:18;28.20;41.60
814;DHT22;389;48.710;9.392;2023-05-29T16:37:43;28.20;42.10
814;DHT22;389;48.710;9.392;2023-05-29T16:40:09;28.10;41.30
814;DHT22;389;48.710;9.392;2023-05-29T16:42:35;28.00;41.00
814;DHT22;389;48.710;9.392;2023-05-29T16:45:01;27.90;41.30
814;DHT22;389;48.710;9.392;2023-05-29T16:47:27;28.00;41.90
814;DHT22;389;48.710;9.392;2023-05-29T16:49:52;28.00;42.20